Time;durP1;ratioP1;P1;durP2;ratioP2;P2;SDS_P1;SDS_P2;PMS_P1;PMS_P2;Temp;Humidity;BMP_temperature;BMP_pressure;BME280_temperature;BME280_humidity;BME280_pressure;Samples;Min_cycle;Max_cycle;Signal;HPM_P1;HPM_P2
2022/05/28 00:01:35;;;;;;;11.27;2.10;;;10.80;99.90;;;;;;4925382;29;20100;-59
2022/05/28 00:04:04;;;;;;;14.20;1.92;;;10.80;99.90;;;;;;4915069;29;20761;-59
2022/05/28 00:06:32;;;;;;;11.05;2.10;;;10.70;99.90;;;;;;4963700;28;20047;-59
2022/05/28 00:08:59;;;;;;;10.82;1.88;;;10.70;99.90;;;;;;4963427;29;20058;-58
2022/05/28 00:11:34;;;;;;;8.23;2.15;;;10.70;99.90;;;;;;4964089;29;20458;-59
2022/05/28 00:14:01;;;;;;;10.40;2.05;;;10.60;99.90;;;;;;4962892;29;20047;-59
2022/05/28 00:16:27;;;;;;;11.02;2.05;;;10.50;99.90;;;;;;4963659;29;20067;-58
2022/05/28 00:18:52;;;;;;;10.73;2.15;;;10.60;99.90;;;;;;4963189;29;20044;-58
2022/05/28 00:21:19;;;;;;;11.35;1.65;;;10.60;99.90;;;;;;4963156;29;20074;-58
2022/05/28 00:23:45;;;;;;;7.90;1.70;;;10.50;99.90;;;;;;4934571;29;20096;-59
2022/05/28 00:26:13;;;;;;;12.38;1.52;;;10.50;99.90;;;;;;4924558;29;20044;-59
2022/05/28 00:28:39;;;;;;;8.25;1.83;;;10.50;99.90;;;;;;4944911;29;20039;-59
2022/05/28 00:31:05;;;;;;;8.52;1.50;;;10.50;99.90;;;;;;4943400;29;20052;-58
2022/05/28 00:33:31;;;;;;;9.38;1.83;;;10.40;99.90;;;;;;4926837;29;20104;-57
2022/05/28 00:35:57;;;;;;;14.02;1.88;;;10.40;99.90;;;;;;4943599;29;20039;-59
2022/05/28 00:38:24;;;;;;;15.38;2.35;;;10.40;99.90;;;;;;4943863;29;20492;-58
2022/05/28 00:40:56;;;;;;;6.60;1.67;;;10.50;99.90;;;;;;4941435;29;20075;-59
2022/05/28 00:43:22;;;;;;;11.60;1.40;;;10.50;99.90;;;;;;4924554;29;20075;-58
2022/05/28 00:45:52;;;;;;;10.10;1.58;;;10.40;99.90;;;;;;4925066;29;20036;-58
2022/05/28 00:48:24;;;;;;;9.27;1.77;;;10.40;99.90;;;;;;4923981;29;20040;-58
2022/05/28 00:50:50;;;;;;;11.07;1.90;;;10.40;99.90;;;;;;4924912;29;20461;-59
2022/05/28 00:53:16;;;;;;;15.20;2.75;;;10.30;99.90;;;;;;4926201;29;20044;-59
2022/05/28 00:55:42;;;;;;;10.68;1.73;;;10.30;99.90;;;;;;4936236;29;20083;-52
2022/05/28 00:58:09;;;;;;;9.50;1.73;;;10.20;99.90;;;;;;4943715;29;20058;-51
2022/05/28 01:00:36;;;;;;;6.78;1.45;;;10.30;99.90;;;;;;4942952;29;20043;-51
2022/05/28 01:03:23;;;;;;;8.85;1.75;;;10.30;99.90;;;;;;4939477;29;20063;-53
2022/05/28 01:06:21;;;;;;;11.13;1.55;;;10.30;99.90;;;;;;4960496;29;20050;-52
2022/05/28 01:08:54;;;;;;;12.18;1.98;;;10.30;99.90;;;;;;4948443;29;20063;-53
2022/05/28 01:11:43;;;;;;;7.85;1.63;;;10.40;99.90;;;;;;4924022;29;20492;-52
2022/05/28 01:14:20;;;;;;;12.95;2.05;;;10.20;99.90;;;;;;4923606;29;20036;-53
2022/05/28 01:17:04;;;;;;;8.85;1.60;;;10.20;99.90;;;;;;4924284;29;20516;-52
2022/05/28 01:19:49;;;;;;;11.93;1.60;;;10.30;99.90;;;;;;4926814;29;20052;-51
2022/05/28 01:22:21;;;;;;;8.25;1.60;;;10.30;99.90;;;;;;4942436;29;20060;-53
2022/05/28 01:25:00;;;;;;;8.93;2.28;;;10.30;99.90;;;;;;4939355;29;20047;-54
2022/05/28 01:27:34;;;;;;;11.77;2.70;;;10.40;99.90;;;;;;4927303;29;20465;-53
2022/05/28 01:30:05;;;;;;;8.35;2.15;;;10.50;99.90;;;;;;4940761;29;20051;-54
2022/05/28 01:32:33;;;;;;;14.18;2.05;;;10.40;99.90;;;;;;4943323;29;20149;-50
2022/05/28 01:35:03;;;;;;;10.20;1.95;;;10.40;99.90;;;;;;4941554;29;20495;-53
2022/05/28 01:37:30;;;;;;;9.52;1.60;;;10.40;99.90;;;;;;4929514;29;20060;-53
2022/05/28 01:39:57;;;;;;;11.00;2.13;;;10.30;99.90;;;;;;4923548;29;20063;-52
2022/05/28 01:42:25;;;;;;;9.32;2.22;;;10.30;99.90;;;;;;4929065;29;20044;-54
2022/05/28 01:44:52;;;;;;;12.60;3.22;;;10.40;99.90;;;;;;4923827;29;20451;-51
2022/05/28 01:47:19;;;;;;;11.05;2.58;;;10.30;99.90;;;;;;4926445;29;20086;-52
2022/05/28 01:49:46;;;;;;;11.48;1.90;;;10.30;99.90;;;;;;4942991;29;20048;-54
2022/05/28 01:52:13;;;;;;;10.35;2.30;;;10.30;99.90;;;;;;4942206;29;20052;-50
2022/05/28 01:54:43;;;;;;;12.00;1.88;;;10.20;99.90;;;;;;4942225;29;20060;-51
2022/05/28 01:57:10;;;;;;;12.98;2.25;;;10.20;99.90;;;;;;4936047;29;20052;-50
2022/05/28 01:59:36;;;;;;;15.68;2.13;;;10.20;99.90;;;;;;4936145;29;20043;-54
2022/05/28 02:02:06;;;;;;;12.43;2.15;;;10.20;99.90;;;;;;4926164;29;20083;-53
2022/05/28 02:04:35;;;;;;;12.07;1.98;;;10.10;99.90;;;;;;4942980;29;20043;-53
2022/05/28 02:07:04;;;;;;;9.27;2.00;;;10.10;99.90;;;;;;4949658;29;20640;-52
2022/05/28 02:09:35;;;;;;;12.80;2.45;;;10.10;99.90;;;;;;4924661;29;20040;-53
2022/05/28 02:12:22;;;;;;;10.32;2.60;;;10.10;99.90;;;;;;4930893;29;20056;-50
2022/05/28 02:15:14;;;;;;;14.77;2.25;;;10.30;99.90;;;;;;4942304;29;20048;-54
2022/05/28 02:17:53;;;;;;;13.75;2.58;;;10.40;99.90;;;;;;4941877;29;20047;-52
2022/05/28 02:20:23;;;;;;;16.92;2.72;;;10.40;99.90;;;;;;4936043;29;20056;-49
2022/05/28 02:22:51;;;;;;;9.95;2.20;;;10.60;99.90;;;;;;4922904;29;20052;-53
2022/05/28 02:25:24;;;;;;;13.43;3.10;;;10.60;99.90;;;;;;4923140;29;20048;-52
2022/05/28 02:27:51;;;;;;;16.17;3.67;;;10.60;99.90;;;;;;4926450;29;20048;-52
2022/05/28 02:30:18;;;;;;;13.00;2.42;;;10.60;99.90;;;;;;4938524;29;20111;-50
2022/05/28 02:32:43;;;;;;;16.67;3.38;;;10.60;99.90;;;;;;4933375;29;20047;-53
2022/05/28 02:35:11;;;;;;;14.10;2.10;;;10.60;99.90;;;;;;4945517;29;20078;-51
2022/05/28 02:37:37;;;;;;;8.45;2.30;;;10.60;99.90;;;;;;4945850;29;20044;-51
2022/05/28 02:40:03;;;;;;;18.35;3.72;;;10.60;99.90;;;;;;4928419;29;20098;-58
2022/05/28 02:42:30;;;;;;;10.07;2.22;;;9.40;99.90;;;;;;4930330;29;20047;-59
2022/05/28 02:44:55;;;;;;;13.13;3.28;;;8.80;99.90;;;;;;4931785;29;20071;-61
2022/05/28 02:47:21;;;;;;;12.60;2.40;;;8.80;99.90;;;;;;4945591;29;20059;-60
2022/05/28 02:49:46;;;;;;;15.63;2.70;;;8.80;99.90;;;;;;4946247;29;20051;-59
2022/05/28 02:52:12;;;;;;;13.30;3.10;;;8.90;99.90;;;;;;4945371;29;20035;-59
2022/05/28 02:54:38;;;;;;;16.60;3.20;;;9.00;99.90;;;;;;4945920;29;20052;-58
2022/05/28 02:57:04;;;;;;;17.52;3.42;;;9.00;99.90;;;;;;4943219;29;20060;-58
2022/05/28 02:59:31;;;;;;;17.27;2.80;;;9.20;99.90;;;;;;4928705;29;20040;-59
2022/05/28 03:01:57;;;;;;;14.73;3.25;;;9.20;99.90;;;;;;4928169;29;20626;-60
2022/05/28 03:04:23;;;;;;;19.00;3.53;;;9.00;99.90;;;;;;4951371;29;20058;-60
2022/05/28 03:06:48;;;;;;;13.05;2.50;;;9.10;99.90;;;;;;4928637;29;20047;-59
2022/05/28 03:09:16;;;;;;;18.95;3.47;;;9.30;99.90;;;;;;4944584;29;20062;-59
2022/05/28 03:11:42;;;;;;;15.45;2.83;;;9.20;99.90;;;;;;4939789;29;20176;-59
2022/05/28 03:14:07;;;;;;;13.43;2.60;;;9.30;99.90;;;;;;4925930;29;20044;-58
2022/05/28 03:16:34;;;;;;;22.08;3.13;;;9.40;99.90;;;;;;4926484;29;20055;-58
2022/05/28 03:18:59;;;;;;;18.95;3.33;;;9.50;99.90;;;;;;4926188;29;20048;-58
2022/05/28 03:21:25;;;;;;;15.57;3.50;;;9.40;99.90;;;;;;4937955;29;20035;-58
2022/05/28 03:23:51;;;;;;;19.67;3.92;;;9.40;99.90;;;;;;4945706;29;20090;-58
2022/05/28 03:26:22;;;;;;;14.48;2.83;;;9.50;99.90;;;;;;4927273;29;20074;-58
2022/05/28 03:28:49;;;;;;;14.73;3.22;;;9.60;99.90;;;;;;4943268;29;20051;-58
2022/05/28 03:31:16;;;;;;;14.98;3.08;;;9.50;99.90;;;;;;4944611;29;20047;-58
2022/05/28 03:33:42;;;;;;;18.10;3.60;;;9.60;99.90;;;;;;4934515;29;20558;-57
2022/05/28 03:36:08;;;;;;;18.60;3.30;;;9.50;99.90;;;;;;4924158;29;20121;-56
2022/05/28 03:38:34;;;;;;;15.90;2.92;;;9.60;99.90;;;;;;4930933;29;20095;-57
2022/05/28 03:41:00;;;;;;;19.60;3.65;;;9.60;99.90;;;;;;4941371;29;20052;-57
2022/05/28 03:43:26;;;;;;;16.50;2.90;;;9.60;99.90;;;;;;4924671;29;20091;-57
2022/05/28 03:45:52;;;;;;;11.10;2.63;;;9.60;99.90;;;;;;4943836;29;20059;-57
2022/05/28 03:48:18;;;;;;;11.95;3.35;;;9.60;99.90;;;;;;4944259;29;20048;-57
2022/05/28 03:50:44;;;;;;;10.40;2.00;;;9.60;99.90;;;;;;4944887;29;20128;-57
2022/05/28 03:53:10;;;;;;;19.40;2.80;;;9.60;99.90;;;;;;4944296;29;20534;-57
2022/05/28 03:55:38;;;;;;;12.90;2.83;;;9.60;99.90;;;;;;4926547;29;20493;-57
2022/05/28 03:58:05;;;;;;;10.68;2.55;;;9.90;99.90;;;;;;4944900;29;20157;-57
2022/05/28 04:00:30;;;;;;;15.20;2.40;;;9.50;99.90;;;;;;4944116;29;20427;-57
2022/05/28 04:02:57;;;;;;;15.35;2.90;;;9.60;99.90;;;;;;4945198;29;20051;-57
2022/05/28 04:05:23;;;;;;;14.07;3.45;;;9.70;99.90;;;;;;4922478;29;20059;-57
2022/05/28 04:07:49;;;;;;;11.75;2.47;;;9.60;99.90;;;;;;4927327;29;20055;-57
2022/05/28 04:10:15;;;;;;;13.48;2.95;;;9.60;99.90;;;;;;4941029;29;20127;-57
2022/05/28 04:12:41;;;;;;;17.63;3.20;;;9.70;99.90;;;;;;4930751;29;20058;-57
2022/05/28 04:15:08;;;;;;;13.18;2.92;;;9.70;99.90;;;;;;4943743;29;20036;-56
2022/05/28 04:17:33;;;;;;;13.80;2.63;;;9.70;99.90;;;;;;4932791;29;20052;-56
2022/05/28 04:19:59;;;;;;;10.80;2.53;;;9.90;99.90;;;;;;4931950;29;20059;-57
2022/05/28 04:22:25;;;;;;;22.35;4.18;;;9.90;99.90;;;;;;4937638;29;20040;-54
2022/05/28 04:24:51;;;;;;;12.70;2.92;;;10.20;99.90;;;;;;4925010;29;20058;-53
2022/05/28 04:27:17;;;;;;;15.93;3.67;;;10.10;99.90;;;;;;4938931;29;20122;-55
2022/05/28 04:29:42;;;;;;;13.07;2.60;;;10.20;99.90;;;;;;4943935;29;20055;-55
2022/05/28 04:32:08;;;;;;;15.45;3.05;;;10.30;99.90;;;;;;4944024;29;20159;-55
2022/05/28 04:34:34;;;;;;;15.50;3.47;;;10.40;99.90;;;;;;4926301;29;20062;-55
2022/05/28 04:36:59;;;;;;;15.40;2.97;;;10.40;99.90;;;;;;4927408;29;20039;-55
2022/05/28 04:39:25;;;;;;;11.98;2.40;;;10.40;99.90;;;;;;4943104;29;20104;-54
2022/05/28 04:41:51;;;;;;;20.98;3.17;;;10.40;99.90;;;;;;4940411;29;20049;-55
2022/05/28 04:44:16;;;;;;;14.82;2.80;;;10.40;99.90;;;;;;4943483;29;20052;-55
2022/05/28 04:46:42;;;;;;;18.10;3.35;;;10.40;99.90;;;;;;4925310;29;20103;-55
2022/05/28 04:49:08;;;;;;;11.88;2.50;;;10.40;99.90;;;;;;4924666;29;20131;-54
2022/05/28 04:51:33;;;;;;;13.30;2.30;;;10.30;99.90;;;;;;4922672;29;20119;-55
2022/05/28 04:53:59;;;;;;;12.27;2.67;;;10.40;99.90;;;;;;4932497;29;20048;-56
2022/05/28 04:56:25;;;;;;;12.55;2.58;;;10.40;99.90;;;;;;4942509;29;20508;-53
2022/05/28 04:58:50;;;;;;;15.02;3.42;;;10.40;99.90;;;;;;4943941;29;20058;-53
2022/05/28 05:01:19;;;;;;;17.42;2.83;;;10.50;99.90;;;;;;4942986;29;20051;-55
2022/05/28 05:03:45;;;;;;;12.68;2.50;;;10.60;99.90;;;;;;4943534;29;20050;-55
2022/05/28 05:06:11;;;;;;;14.77;2.90;;;10.70;99.90;;;;;;4943088;29;20044;-54
2022/05/28 05:08:37;;;;;;;12.70;2.67;;;10.80;99.90;;;;;;4943131;29;20048;-53
2022/05/28 05:11:03;;;;;;;13.82;2.47;;;10.80;99.90;;;;;;4943526;29;20044;-53
2022/05/28 05:13:29;;;;;;;16.50;2.38;;;10.80;99.90;;;;;;4916485;29;20134;-54
2022/05/28 05:15:55;;;;;;;15.52;2.60;;;10.80;99.90;;;;;;4924655;29;20481;-55
2022/05/28 05:18:20;;;;;;;10.95;2.58;;;10.80;99.90;;;;;;4919455;29;20043;-53
2022/05/28 05:20:46;;;;;;;11.38;3.08;;;10.80;99.90;;;;;;4929483;29;20084;-54
2022/05/28 05:23:12;;;;;;;11.52;2.67;;;10.80;99.90;;;;;;4938996;29;20047;-53
2022/05/28 05:25:38;;;;;;;14.57;3.80;;;10.80;99.90;;;;;;4923172;29;20052;-53
2022/05/28 05:28:04;;;;;;;20.40;3.40;;;10.80;99.90;;;;;;4922624;29;20052;-54
2022/05/28 05:30:30;;;;;;;14.73;3.78;;;10.90;99.90;;;;;;4920040;29;20060;-54
2022/05/28 05:32:55;;;;;;;12.00;2.45;;;11.20;99.90;;;;;;4904146;29;20225;-54
2022/05/28 05:35:22;;;;;;;13.77;3.17;;;11.30;99.90;;;;;;4920390;29;20044;-53
2022/05/28 05:37:48;;;;;;;14.20;3.08;;;11.40;99.90;;;;;;4924025;29;20060;-52
2022/05/28 05:40:14;;;;;;;12.65;2.67;;;11.50;99.90;;;;;;4939433;29;20372;-53
2022/05/28 05:42:40;;;;;;;16.10;4.35;;;11.50;99.90;;;;;;4911365;29;20051;-54
2022/05/28 05:45:06;;;;;;;11.60;2.40;;;11.60;99.90;;;;;;4939129;29;20051;-54
2022/05/28 05:47:32;;;;;;;12.88;2.85;;;11.70;99.90;;;;;;4938958;29;20075;-54
2022/05/28 05:49:58;;;;;;;14.73;3.15;;;11.70;99.90;;;;;;4923419;29;20571;-54
2022/05/28 05:52:23;;;;;;;13.68;2.63;;;11.70;99.90;;;;;;4925524;29;20044;-54
2022/05/28 05:54:49;;;;;;;14.88;2.92;;;11.70;99.90;;;;;;4925655;29;20118;-53
2022/05/28 05:57:15;;;;;;;14.95;3.88;;;11.90;99.90;;;;;;4938750;29;20106;-55
2022/05/28 05:59:40;;;;;;;18.70;3.10;;;11.90;99.90;;;;;;4922329;29;20051;-54
2022/05/28 06:02:07;;;;;;;18.83;3.65;;;11.90;99.90;;;;;;4934422;29;20063;-54
2022/05/28 06:04:32;;;;;;;19.70;3.60;;;11.80;99.90;;;;;;4934647;29;20054;-54
2022/05/28 06:06:58;;;;;;;17.13;3.08;;;11.70;99.90;;;;;;4958664;29;20047;-55
2022/05/28 06:09:25;;;;;;;17.33;3.70;;;11.50;99.90;;;;;;4940527;29;20077;-53
2022/05/28 06:11:51;;;;;;;14.15;3.33;;;11.40;99.90;;;;;;4958731;29;20054;-53
2022/05/28 06:14:17;;;;;;;12.98;2.53;;;11.30;99.90;;;;;;4958068;29;20043;-52
2022/05/28 06:16:43;;;;;;;11.02;2.22;;;11.30;99.90;;;;;;4943927;29;20099;-51
2022/05/28 06:19:08;;;;;;;9.43;2.00;;;11.30;99.90;;;;;;4938730;29;20052;-51
2022/05/28 06:21:35;;;;;;;10.20;1.88;;;11.30;99.90;;;;;;4938738;29;20048;-54
2022/05/28 06:24:02;;;;;;;9.60;2.05;;;11.50;99.90;;;;;;4939893;29;20164;-54
2022/05/28 06:26:28;;;;;;;10.15;1.80;;;11.60;99.90;;;;;;4938667;29;20193;-54
2022/05/28 06:28:54;;;;;;;7.82;1.75;;;11.70;99.90;;;;;;4938937;29;20051;-53
2022/05/28 06:31:20;;;;;;;11.70;2.30;;;11.80;99.90;;;;;;4935544;29;20134;-55
2022/05/28 06:33:46;;;;;;;12.35;2.63;;;11.90;99.90;;;;;;4924755;29;20150;-56
2022/05/28 06:36:13;;;;;;;7.65;1.88;;;11.80;99.90;;;;;;4935604;29;20058;-52
2022/05/28 06:38:39;;;;;;;13.52;2.80;;;11.80;99.90;;;;;;4919949;29;20044;-54
2022/05/28 06:41:06;;;;;;;13.85;2.55;;;11.50;99.90;;;;;;4920492;29;20047;-53
2022/05/28 06:43:32;;;;;;;13.40;2.40;;;11.20;99.90;;;;;;4919209;29;20047;-55
2022/05/28 06:46:06;;;;;;;13.20;2.88;;;11.00;99.90;;;;;;4920260;29;20068;-53
2022/05/28 06:48:32;;;;;;;11.98;2.85;;;11.00;99.90;;;;;;4919365;29;20063;-55
2022/05/28 06:51:04;;;;;;;13.00;3.85;;;10.80;99.90;;;;;;4926704;29;20379;-53
2022/05/28 06:53:34;;;;;;;11.65;2.30;;;10.80;99.90;;;;;;4922886;29;20056;-52
2022/05/28 06:56:00;;;;;;;9.50;2.30;;;10.80;99.90;;;;;;4934171;29;20052;-52
2022/05/28 06:58:26;;;;;;;12.65;2.17;;;10.80;99.90;;;;;;4923796;29;20068;-52
2022/05/28 07:00:52;;;;;;;12.15;2.33;;;10.90;99.90;;;;;;4920192;29;20107;-53
2022/05/28 07:03:22;;;;;;;17.08;3.47;;;10.90;99.90;;;;;;4936658;29;20092;-54
2022/05/28 07:05:47;;;;;;;16.50;3.45;;;11.00;99.90;;;;;;4951572;29;20043;-53
2022/05/28 07:08:13;;;;;;;12.63;3.13;;;11.10;99.90;;;;;;4938465;29;20672;-54
2022/05/28 07:10:43;;;;;;;12.77;2.78;;;11.30;99.90;;;;;;4923415;29;20572;-55
2022/05/28 07:13:10;;;;;;;14.30;3.22;;;11.30;99.90;;;;;;4934437;29;20058;-55
2022/05/28 07:15:36;;;;;;;13.35;3.70;;;11.30;99.90;;;;;;4922136;29;20342;-54
2022/05/28 07:18:03;;;;;;;13.88;2.72;;;11.30;99.90;;;;;;4940166;29;20079;-56
2022/05/28 07:20:28;;;;;;;18.08;3.45;;;11.40;99.90;;;;;;4941689;29;20055;-55
2022/05/28 07:22:54;;;;;;;18.10;3.75;;;11.80;99.90;;;;;;4941430;29;20055;-54
2022/05/28 07:25:20;;;;;;;16.15;2.70;;;12.20;99.90;;;;;;4936236;29;20100;-55
2022/05/28 07:27:45;;;;;;;13.70;2.90;;;12.40;99.90;;;;;;4924107;29;20111;-54
2022/05/28 07:30:11;;;;;;;22.33;4.00;;;12.20;99.90;;;;;;4940778;29;20059;-54
2022/05/28 07:32:37;;;;;;;20.48;3.38;;;12.10;99.90;;;;;;4947932;29;20054;-54
2022/05/28 07:35:03;;;;;;;18.73;3.60;;;11.90;99.90;;;;;;4929341;29;20058;-53
2022/05/28 07:37:30;;;;;;;18.95;3.20;;;11.90;99.90;;;;;;4935808;29;20052;-53
2022/05/28 07:39:57;;;;;;;17.50;3.05;;;12.00;99.90;;;;;;4905646;29;20048;-55
2022/05/28 07:42:23;;;;;;;15.63;3.28;;;12.30;99.90;;;;;;4932401;29;20051;-56
2022/05/28 07:44:49;;;;;;;12.90;2.95;;;12.20;99.90;;;;;;4941707;29;20132;-52
2022/05/28 07:47:14;;;;;;;16.92;3.08;;;12.20;99.90;;;;;;4924219;29;20672;-53
2022/05/28 07:49:40;;;;;;;15.45;3.30;;;12.00;99.90;;;;;;4934556;29;20040;-53
2022/05/28 07:52:07;;;;;;;11.00;2.60;;;12.00;99.90;;;;;;4947056;29;20103;-51
2022/05/28 07:54:33;;;;;;;16.58;3.22;;;12.10;99.90;;;;;;4941319;29;20051;-52
2022/05/28 07:56:58;;;;;;;10.27;2.90;;;12.50;99.90;;;;;;4923361;29;20059;-53
2022/05/28 07:59:24;;;;;;;16.98;3.38;;;12.90;99.90;;;;;;4941375;29;20103;-51
2022/05/28 08:01:50;;;;;;;14.52;2.70;;;12.50;99.90;;;;;;4927346;29;20048;-52
2022/05/28 08:04:16;;;;;;;13.63;3.58;;;12.20;99.90;;;;;;4935332;29;20046;-54
2022/05/28 08:06:42;;;;;;;11.63;2.58;;;12.10;99.90;;;;;;4960580;29;20040;-52
2022/05/28 08:09:11;;;;;;;13.98;3.17;;;12.40;99.90;;;;;;4959884;29;20082;-54
2022/05/28 08:11:37;;;;;;;15.55;2.72;;;12.60;99.90;;;;;;4943678;29;20050;-55
2022/05/28 08:14:03;;;;;;;14.30;2.88;;;12.80;99.90;;;;;;4935328;29;20043;-53
2022/05/28 08:16:29;;;;;;;17.40;3.60;;;13.10;99.90;;;;;;4941337;29;20075;-55
2022/05/28 08:18:55;;;;;;;18.88;2.90;;;13.20;99.90;;;;;;4940552;29;20051;-54
2022/05/28 08:24:06;;;;;;;14.50;2.67;;;13.10;99.90;;;;;;4941290;29;20055;-54
2022/05/28 08:26:33;;;;;;;12.98;2.92;;;12.60;99.90;;;;;;4934841;29;20064;-55
2022/05/28 08:28:58;;;;;;;14.50;3.10;;;12.80;99.90;;;;;;4921817;29;20108;-53
2022/05/28 08:31:24;;;;;;;16.63;2.80;;;12.70;99.90;;;;;;4923829;29;20080;-52
2022/05/28 08:33:51;;;;;;;13.95;3.33;;;12.50;99.90;;;;;;4921694;29;20058;-53
2022/05/28 08:36:17;;;;;;;12.32;2.67;;;12.50;99.90;;;;;;4936960;29;20244;-54
2022/05/28 08:38:43;;;;;;;12.95;2.58;;;12.80;99.90;;;;;;4940087;29;20086;-52
2022/05/28 08:41:22;;;;;;;14.73;2.70;;;13.20;99.90;;;;;;4939372;29;20055;-53
2022/05/28 08:44:07;;;;;;;14.55;2.72;;;13.00;99.90;;;;;;4922538;29;20044;-53
2022/05/28 08:46:35;;;;;;;12.60;2.35;;;12.90;99.90;;;;;;4921686;29;20056;-55
2022/05/28 08:49:04;;;;;;;21.13;3.22;;;13.30;99.90;;;;;;4939882;29;20047;-53
2022/05/28 08:51:48;;;;;;;12.20;2.28;;;13.00;99.90;;;;;;4940133;29;20043;-53
2022/05/28 08:55:07;;;;;;;11.82;2.00;;;12.80;99.90;;;;;;4947321;28;20082;-54
2022/05/28 08:57:48;;;;;;;14.20;2.78;;;13.30;99.90;;;;;;4954406;29;20133;-54
2022/05/28 09:00:19;;;;;;;10.85;1.85;;;12.90;99.90;;;;;;4959031;29;20116;-53
2022/05/28 09:03:00;;;;;;;13.55;2.70;;;12.70;99.90;;;;;;4951029;29;20043;-54
2022/05/28 09:05:31;;;;;;;12.80;2.25;;;12.70;99.90;;;;;;4937042;29;20091;-54
2022/05/28 09:08:02;;;;;;;14.90;2.28;;;12.60;99.90;;;;;;4959252;29;20387;-53
2022/05/28 09:10:35;;;;;;;11.50;2.42;;;12.40;99.90;;;;;;4959344;29;20059;-52
2022/05/28 09:13:43;;;;;;;16.38;3.33;;;12.40;99.90;;;;;;4930811;29;20051;-54
2022/05/28 09:16:19;;;;;;;13.75;2.45;;;12.60;99.90;;;;;;4932155;29;20064;-52
2022/05/28 09:18:46;;;;;;;18.23;3.15;;;12.80;99.90;;;;;;4939427;29;20047;-52
2022/05/28 09:21:15;;;;;;;13.93;3.47;;;12.70;99.90;;;;;;4951103;29;20047;-53
2022/05/28 09:23:47;;;;;;;17.98;3.42;;;12.70;99.90;;;;;;4954857;29;20547;-55
2022/05/28 09:26:17;;;;;;;12.30;2.73;;;12.90;99.90;;;;;;4935489;29;20138;-54
2022/05/28 09:29:00;;;;;;;16.98;3.40;;;13.00;99.90;;;;;;4948600;29;20043;-50
2022/05/28 09:31:48;;;;;;;11.80;2.28;;;13.00;99.90;;;;;;4939043;29;20052;-50
2022/05/28 09:34:38;;;;;;;14.02;2.60;;;13.30;99.90;;;;;;4939489;29;20062;-53
2022/05/28 09:37:12;;;;;;;11.80;1.95;;;13.20;99.90;;;;;;4940278;29;20094;-52
2022/05/28 09:40:00;;;;;;;12.32;2.33;;;12.80;99.90;;;;;;4938862;29;20107;-50
2022/05/28 09:42:40;;;;;;;11.93;2.20;;;12.90;99.90;;;;;;4948107;29;20051;-52
2022/05/28 09:45:39;;;;;;;14.68;3.53;;;13.10;99.90;;;;;;4954508;28;21997;-49
2022/05/28 09:48:16;;;;;;;15.73;2.33;;;13.30;99.90;;;;;;4945578;28;20039;-51
2022/05/28 09:50:42;;;;;;;13.77;2.25;;;13.30;99.90;;;;;;4970825;28;20677;-52
2022/05/28 09:56:01;;;;;;;14.35;2.88;;;12.90;99.90;;;;;;4964867;28;20154;-53
2022/05/28 09:58:30;;;;;;;9.40;2.15;;;12.90;99.90;;;;;;4971143;28;20110;-49
2022/05/28 10:01:26;;;;;;;9.85;2.15;;;12.90;99.90;;;;;;4973152;28;20063;-51
2022/05/28 10:06:45;;;;;;;;;;;13.60;99.90;;;;;;4982065;28;20050;-53
2022/05/28 10:09:18;;;;;;;10.43;2.22;;;13.00;99.90;;;;;;4980567;28;19922;-53
2022/05/28 10:12:14;;;;;;;13.30;2.55;;;13.10;99.90;;;;;;4981318;28;20121;-52
2022/05/28 10:14:40;;;;;;;13.48;2.35;;;13.10;99.90;;;;;;4980876;28;20051;-52
2022/05/28 10:17:06;;;;;;;9.80;1.73;;;13.20;99.90;;;;;;4975595;28;21042;-53
2022/05/28 10:19:39;;;;;;;11.07;1.98;;;13.50;99.90;;;;;;4959610;29;20609;-51
2022/05/28 10:22:12;;;;;;;10.65;2.05;;;13.70;99.90;;;;;;4921175;29;20863;-51
2022/05/28 10:24:48;;;;;;;8.48;1.60;;;14.00;99.90;;;;;;4939498;29;20047;-53
2022/05/28 10:27:34;;;;;;;10.52;1.63;;;13.90;99.90;;;;;;4936476;29;20118;-53
2022/05/28 10:30:05;;;;;;;10.35;1.63;;;13.80;99.90;;;;;;4936393;29;20476;-52
2022/05/28 10:32:43;;;;;;;9.55;2.03;;;13.70;99.90;;;;;;4956425;29;20107;-52
2022/05/28 10:35:13;;;;;;;11.85;1.80;;;13.50;99.90;;;;;;4927278;29;20058;-50
2022/05/28 10:37:40;;;;;;;12.35;2.03;;;13.70;99.90;;;;;;4942361;29;20149;-49
2022/05/28 10:40:28;;;;;;;10.93;1.73;;;13.80;99.90;;;;;;4957509;29;20067;-51
2022/05/28 10:43:05;;;;;;;12.40;1.98;;;14.10;99.90;;;;;;4961200;29;20083;-51
2022/05/28 10:45:47;;;;;;;11.43;2.30;;;14.20;99.90;;;;;;4961987;29;20040;-53
2022/05/28 10:48:13;;;;;;;;;;;13.70;99.90;;;;;;4922710;29;20542;-53
2022/05/28 10:51:02;;;;;;;10.52;2.22;;;14.10;99.90;;;;;;4961385;29;19922;-54
2022/05/28 10:53:39;;;;;;;6.10;1.33;;;14.10;99.90;;;;;;4950186;29;20065;-50
2022/05/28 10:56:05;;;;;;;12.10;2.58;;;13.80;99.90;;;;;;4963829;29;20090;-53
2022/05/28 10:58:52;;;;;;;11.95;1.85;;;14.00;99.90;;;;;;4964885;29;20051;-53
2022/05/28 11:01:39;;;;;;;12.63;2.00;;;13.80;99.90;;;;;;4959632;29;20044;-51
2022/05/28 11:04:04;;;;;;;9.45;2.35;;;13.80;99.90;;;;;;4958507;28;20043;-52
2022/05/28 11:06:41;;;;;;;12.77;2.30;;;13.80;99.90;;;;;;4968739;28;20054;-53
2022/05/28 11:09:26;;;;;;;11.77;1.92;;;13.90;99.90;;;;;;4958665;29;20100;-51
2022/05/28 11:12:04;;;;;;;8.52;2.95;;;13.90;99.90;;;;;;4945610;29;20059;-52
2022/05/28 11:15:15;;;;;;;9.23;2.33;;;13.40;99.90;;;;;;4941912;29;20051;-53
2022/05/28 11:17:49;;;;;;;8.25;1.88;;;13.30;99.90;;;;;;4918971;29;20064;-54
2022/05/28 11:20:22;;;;;;;10.95;2.22;;;13.80;99.90;;;;;;4933709;29;20058;-53
2022/05/28 11:23:03;;;;;;;13.00;2.38;;;13.80;99.90;;;;;;4944411;29;20057;-51
2022/05/28 11:25:54;;;;;;;16.67;3.10;;;13.50;99.90;;;;;;4941894;29;20157;-52
2022/05/28 11:28:33;;;;;;;10.57;2.55;;;12.90;99.90;;;;;;4961740;29;20126;-51
2022/05/28 11:31:19;;;;;;;15.98;2.40;;;12.40;99.90;;;;;;4959941;29;20585;-53
2022/05/28 11:33:46;;;;;;;18.52;3.75;;;12.30;99.90;;;;;;4946817;29;20055;-52
2022/05/28 11:36:36;;;;;;;16.23;2.65;;;12.10;99.90;;;;;;4946834;29;20868;-49
2022/05/28 11:39:18;;;;;;;20.42;3.38;;;12.20;99.90;;;;;;4940891;29;20047;-53
2022/05/28 11:41:56;;;;;;;13.88;2.83;;;12.40;99.90;;;;;;4934449;29;20248;-53
2022/05/28 11:44:46;;;;;;;14.57;2.72;;;12.40;99.90;;;;;;4960769;29;20054;-51
2022/05/28 11:47:29;;;;;;;13.50;2.60;;;12.60;99.90;;;;;;4960561;29;20051;-53
2022/05/28 11:53:25;;;;;;;11.67;1.83;;;13.00;99.90;;;;;;4954226;29;20101;-52
2022/05/28 11:55:56;;;;;;;15.40;3.58;;;13.50;99.90;;;;;;4955810;29;20052;-52
2022/05/28 11:58:27;;;;;;;8.97;2.17;;;13.80;99.90;;;;;;4941814;29;20052;-51
2022/05/28 12:01:06;;;;;;;17.42;2.83;;;13.80;99.90;;;;;;4907671;29;20532;-52
2022/05/28 12:03:32;;;;;;;10.93;2.35;;;14.00;99.90;;;;;;4938654;29;20047;-51
2022/05/28 12:06:07;;;;;;;11.75;2.05;;;13.90;99.90;;;;;;4942683;29;20054;-51
2022/05/28 12:08:45;;;;;;;9.38;2.10;;;13.80;99.90;;;;;;4959854;29;20103;-52
2022/05/28 12:11:20;;;;;;;11.80;2.60;;;13.40;99.90;;;;;;4947665;29;20071;-52
2022/05/28 12:13:53;;;;;;;10.57;2.15;;;13.50;99.90;;;;;;4962468;29;20488;-53
2022/05/28 12:16:22;;;;;;;12.65;2.67;;;13.30;99.90;;;;;;4963615;29;20050;-52
2022/05/28 12:19:07;;;;;;;13.60;2.70;;;13.20;99.90;;;;;;4963291;29;20065;-52
2022/05/28 12:21:35;;;;;;;11.13;2.35;;;13.00;99.90;;;;;;4962997;29;20043;-51
2022/05/28 12:24:27;;;;;;;13.00;2.40;;;13.20;99.90;;;;;;4962240;29;20071;-52
2022/05/28 12:27:09;;;;;;;;;;;13.30;99.90;;;;;;4948045;29;20101;-50
2022/05/28 12:29:43;;;;;;;14.23;2.42;;;13.60;99.90;;;;;;4957308;29;19930;-51
2022/05/28 12:32:15;;;;;;;12.68;1.90;;;13.50;99.90;;;;;;4926850;29;20606;-51
2022/05/28 12:34:57;;;;;;;12.13;2.17;;;13.50;99.90;;;;;;4948232;29;20054;-50
2022/05/28 12:37:37;;;;;;;11.97;2.00;;;13.70;99.90;;;;;;4958501;29;20129;-50
2022/05/28 12:40:09;;;;;;;11.55;2.38;;;13.90;99.90;;;;;;4962764;29;20647;-53
2022/05/28 12:42:35;;;;;;;11.32;2.08;;;13.80;99.90;;;;;;4947437;29;20054;-51
2022/05/28 12:45:34;;;;;;;9.20;1.95;;;13.50;99.90;;;;;;4963152;29;20043;-52
2022/05/28 12:48:05;;;;;;;10.82;2.15;;;14.00;99.90;;;;;;4961836;29;20055;-54
2022/05/28 12:50:59;;;;;;;11.48;1.98;;;13.60;99.90;;;;;;4962994;29;20048;-53
2022/05/28 12:53:25;;;;;;;12.90;2.42;;;13.70;99.90;;;;;;4962818;29;20074;-53
2022/05/28 12:56:06;;;;;;;8.02;1.88;;;13.80;99.90;;;;;;4961644;28;20058;-52
2022/05/28 12:58:34;;;;;;;12.15;2.17;;;13.30;99.90;;;;;;4955883;29;20039;-51
2022/05/28 13:01:15;;;;;;;15.30;2.47;;;13.20;99.90;;;;;;4962291;29;20051;-52
2022/05/28 13:03:42;;;;;;;16.70;3.22;;;13.10;99.90;;;;;;4945262;28;20071;-54
2022/05/28 13:06:19;;;;;;;11.35;2.10;;;12.70;99.90;;;;;;4972071;28;20040;-49
2022/05/28 13:08:51;;;;;;;12.55;1.95;;;13.00;99.90;;;;;;4950549;29;20048;-50
2022/05/28 13:11:33;;;;;;;12.82;1.70;;;13.30;99.90;;;;;;4950466;29;20043;-52